Evans, CO (80620)

01:28 MST 21. Leden 2017 (GMT -0700)
Ross Hall - UNC | | Change Station

Výška 4790 ft 40.40 °N, 104.70 °W | Updated 38 seconds ago

Částečně oblačno
Částečně oblačno
27.8 °F
Pocit jako 28 °F
S
2.0
Vítr proměnlivý Vítr od SSZ
Gusts 3.0 mil/h

Dnes
Vysoké -- | Nízké -- °F
--% Možnost srážek
Včera
Vysoké -- | Nízké -- °F
Precip. -- inčů
Tlak 29.49 inčů
Viditelnost 10.0 mílí
Zataženo Jasno
Ochlazování větrem 28 °F
Rosný bod 21 °F
Vlhkost 76%
Dešťové srážky 0.01 inčů
Sněhová pokrývka Není k dispozici
7:16 AM 5:04 PM
Ubývající, 37% visible
METAR KGXY 210756Z AUTO 36006KT 10SM CLR M04/M06 A2943 RMK AO2 SLP986 T10441061 FZRANO
Tlak 29.49 inčů
Viditelnost 10.0 mílí
Zataženo Jasno
Ochlazování větrem 28 °F
Rosný bod 21 °F
Vlhkost 76%
Dešťové srážky 0.01 inčů
Sněhová pokrývka Není k dispozici
7:16 AM 5:04 PM
Ubývající, 37% visible
METAR KGXY 210756Z AUTO 36006KT 10SM CLR M04/M06 A2943 RMK AO2 SLP986 T10441061 FZRANO

Get Your Daily Forecast Email!

Thanks for signing up!

Be on the lookout for a verification email in your inbox.

You'll start receiving the daily forecast at 8 AM.

×

10-Day Weather Forecast

Almanac

Astronomie

Jan. 21, 2017 Východ Západ
Skutečný čas
Občanský soumrak
Námořní soumrak
Astronomický soumrak
Měsíc
Délka denního světla
Délka dne
Tomorrow will be .
, % of the Moon is Illuminated

Dnešní extrémy

State Highs State Lows

Community

WunderPhotos

Upload Photos

1,962,540 snímků staženo!

WunderBlog® & News

Nearby

Kvalita ovzduší

  Kvalita ovzduší Index kvality ovzduší Polutant
Not available.

Výška sněhu

Station Hloubka Nadmořská výška

Seizmická činnost

Město Distance Mag. Čas & datum
Minimální zobrazený rozsah je 2.5.

Pobřežní teplota vody

Lokalita Teplota

Stations

Poblíž povětrnostní stanice

Lokace stanice Tepl. Ochlazování větrem Rosný bod Vlhkost Vítr Precip. Výška Čas hlášení Typ
                   

Watches & Warnings

There are currently no watches in effect.